createdAt,value
2023-02-15T00:00:41.083Z,0.00
2023-02-15T00:01:41.803Z,0.00
2023-02-15T00:02:41.688Z,0.00
2023-02-15T00:03:41.915Z,0.00
2023-02-15T00:04:40.987Z,0.00
2023-02-15T00:05:41.632Z,0.00
2023-02-15T00:06:41.659Z,0.00
2023-02-15T00:07:41.722Z,0.00
2023-02-15T00:08:41.176Z,0.00
2023-02-15T00:09:40.889Z,0.00
2023-02-15T00:10:41.582Z,0.00
2023-02-15T00:11:41.567Z,0.00
2023-02-15T00:12:41.556Z,0.00
2023-02-15T00:13:40.989Z,0.00
2023-02-15T00:14:40.869Z,0.00
2023-02-15T00:15:41.788Z,0.00
2023-02-15T00:16:41.586Z,0.00
2023-02-15T00:17:40.821Z,0.00
2023-02-15T00:18:41.514Z,0.00
2023-02-15T00:19:40.825Z,0.00
2023-02-15T00:20:41.468Z,0.00
2023-02-15T00:21:40.890Z,0.00
2023-02-15T00:22:41.702Z,0.00
2023-02-15T00:23:40.779Z,0.00
2023-02-15T00:24:41.435Z,0.00
2023-02-15T00:25:41.414Z,0.00
2023-02-15T00:26:41.418Z,0.00
2023-02-15T00:27:40.785Z,0.00
2023-02-15T00:28:41.401Z,0.00
2023-02-15T00:29:40.724Z,0.00
2023-02-15T00:30:40.724Z,0.00
2023-02-15T00:31:41.419Z,0.00
2023-02-15T00:32:41.612Z,0.00
2023-02-15T00:33:41.350Z,0.00
2023-02-15T00:34:41.572Z,0.00
2023-02-15T00:35:41.316Z,0.00
2023-02-15T00:36:41.306Z,0.00
2023-02-15T00:37:41.552Z,0.00
2023-02-15T00:38:41.573Z,0.00
2023-02-15T00:39:41.531Z,0.00
2023-02-15T00:40:41.533Z,0.00
2023-02-15T00:41:41.252Z,0.00
2023-02-15T00:42:41.532Z,0.00
2023-02-15T00:43:40.608Z,0.00
2023-02-15T00:44:41.483Z,0.00
2023-02-15T00:45:41.077Z,0.00
2023-02-15T00:46:41.466Z,0.00
2023-02-15T00:47:41.191Z,0.00
2023-02-15T00:48:41.479Z,0.00
2023-02-15T00:49:41.426Z,0.00
2023-02-15T00:50:41.433Z,0.00
2023-02-15T00:51:41.146Z,0.00
2023-02-15T00:52:41.135Z,0.00
2023-02-15T00:53:41.414Z,0.00
2023-02-15T00:54:41.376Z,0.00
2023-02-15T00:55:41.372Z,0.00
2023-02-15T00:56:41.345Z,0.00
2023-02-15T00:57:41.087Z,0.00
2023-02-15T00:58:40.407Z,0.00
2023-02-15T00:59:40.385Z,0.00
2023-02-15T01:00:41.062Z,0.00
2023-02-15T01:01:41.330Z,0.00
2023-02-15T01:02:41.057Z,0.00
2023-02-15T01:03:41.047Z,0.00
2023-02-15T01:04:41.084Z,0.00
2023-02-15T01:05:41.010Z,0.00
2023-02-15T01:06:41.279Z,0.00
2023-02-15T01:07:41.248Z,0.00
2023-02-15T01:08:41.004Z,0.00
2023-02-15T01:09:40.959Z,0.00
2023-02-15T01:10:41.208Z,0.00
2023-02-15T01:11:40.941Z,0.00
2023-02-15T01:12:41.199Z,0.00
2023-02-15T01:13:41.202Z,0.00
2023-02-15T01:14:41.179Z,0.00
2023-02-15T01:15:43.652Z,0.00
2023-02-15T01:16:41.150Z,0.00
2023-02-15T01:17:40.884Z,0.00
2023-02-15T01:18:41.162Z,0.00
2023-02-15T01:19:41.863Z,0.00
2023-02-15T01:20:41.111Z,0.00
2023-02-15T01:21:41.099Z,0.00
2023-02-15T01:22:40.832Z,0.00
2023-02-15T01:23:41.093Z,0.00
2023-02-15T01:24:40.816Z,0.00
2023-02-15T01:25:40.805Z,0.00
2023-02-15T01:26:40.795Z,0.00
2023-02-15T01:27:40.109Z,0.00
2023-02-15T01:28:41.054Z,0.00
2023-02-15T01:29:40.753Z,0.00
2023-02-15T01:30:40.926Z,0.00
2023-02-15T01:31:41.071Z,0.00
2023-02-15T01:32:40.983Z,0.00
2023-02-15T01:33:40.713Z,0.00
2023-02-15T01:34:40.791Z,0.00
2023-02-15T01:35:40.965Z,0.00
2023-02-15T01:36:40.684Z,0.00
2023-02-15T01:37:40.668Z,0.00
2023-02-15T01:38:40.703Z,0.00
2023-02-15T01:39:40.680Z,0.00
2023-02-15T01:40:39.954Z,0.00
2023-02-15T01:41:39.957Z,0.00
2023-02-15T01:42:40.868Z,0.00
2023-02-15T01:43:40.865Z,0.00
2023-02-15T01:44:40.617Z,0.00
2023-02-15T01:45:39.888Z,0.00
2023-02-15T01:46:39.899Z,0.00
2023-02-15T01:47:39.916Z,0.00
2023-02-15T01:48:39.925Z,0.00
2023-02-15T01:49:40.825Z,0.00
2023-02-15T01:50:40.527Z,0.00
2023-02-15T01:51:39.837Z,0.00
2023-02-15T01:52:40.505Z,0.00
2023-02-15T01:53:39.823Z,0.00
2023-02-15T01:54:40.517Z,0.00
2023-02-15T01:55:40.475Z,0.00
2023-02-15T01:56:40.463Z,0.00
2023-02-15T01:57:40.474Z,0.00
2023-02-15T01:58:40.448Z,0.00
2023-02-15T01:59:39.776Z,0.00
2023-02-15T02:00:40.664Z,0.00
2023-02-15T02:01:40.550Z,0.00
2023-02-15T02:02:40.687Z,0.00
2023-02-15T02:03:40.384Z,0.00
2023-02-15T02:04:40.653Z,0.00
2023-02-15T02:05:40.374Z,0.00
2023-02-15T02:06:40.615Z,0.00
2023-02-15T02:07:40.603Z,0.00
2023-02-15T02:08:40.587Z,0.00
2023-02-15T02:09:40.594Z,0.00
2023-02-15T02:10:40.314Z,0.00
2023-02-15T02:11:40.554Z,0.00
2023-02-15T02:12:40.549Z,0.00
2023-02-15T02:13:40.544Z,0.00
2023-02-15T02:14:40.555Z,0.00
2023-02-15T02:15:40.310Z,0.00
2023-02-15T02:16:40.527Z,0.00
2023-02-15T02:17:40.245Z,0.00
2023-02-15T02:18:40.227Z,0.00
2023-02-15T02:19:40.557Z,0.00
2023-02-15T02:20:40.473Z,0.00
2023-02-15T02:21:40.195Z,0.00
2023-02-15T02:22:40.186Z,0.00
2023-02-15T02:23:40.173Z,0.00
2023-02-15T02:24:40.177Z,0.00
2023-02-15T02:25:40.155Z,0.00
2023-02-15T02:26:40.140Z,0.00
2023-02-15T02:27:39.472Z,0.00
2023-02-15T02:28:40.118Z,0.00
2023-02-15T02:29:40.117Z,0.00
2023-02-15T02:30:40.214Z,0.00
2023-02-15T02:31:40.179Z,0.00
2023-02-15T02:32:40.102Z,0.00
2023-02-15T02:33:40.066Z,0.00
2023-02-15T02:34:40.058Z,0.00
2023-02-15T02:35:39.384Z,0.00
2023-02-15T02:36:40.037Z,0.00
2023-02-15T02:37:40.024Z,0.00
2023-02-15T02:38:40.014Z,0.00
2023-02-15T02:39:39.339Z,0.00
2023-02-15T02:40:39.330Z,0.00
2023-02-15T02:41:39.978Z,0.00
2023-02-15T02:42:39.973Z,0.00
2023-02-15T02:43:39.283Z,0.00
2023-02-15T02:44:39.257Z,0.00
2023-02-15T02:45:39.278Z,0.00
2023-02-15T02:46:39.940Z,0.00
2023-02-15T02:47:39.920Z,0.00
2023-02-15T02:48:39.900Z,0.00
2023-02-15T02:49:39.895Z,0.00
2023-02-15T02:50:39.190Z,0.00
2023-02-15T02:51:39.199Z,0.00
2023-02-15T02:52:39.867Z,0.00
2023-02-15T02:53:41.115Z,0.00
2023-02-15T02:54:39.840Z,0.00
2023-02-15T02:55:39.838Z,0.00
2023-02-15T02:56:39.844Z,0.00
2023-02-15T02:57:39.148Z,0.00
2023-02-15T02:58:39.811Z,0.00
2023-02-15T02:59:39.789Z,0.00
2023-02-15T03:00:39.773Z,0.00
2023-02-15T03:01:39.826Z,0.00
2023-02-15T03:02:39.814Z,0.00
2023-02-15T03:03:39.771Z,0.00
2023-02-15T03:04:39.738Z,0.00
2023-02-15T03:05:39.741Z,0.00
2023-02-15T03:06:39.732Z,0.00
2023-02-15T03:07:39.720Z,0.00
2023-02-15T03:08:39.016Z,0.00
2023-02-15T03:09:39.690Z,0.00
2023-02-15T03:10:39.674Z,0.00
2023-02-15T03:11:39.684Z,0.00
2023-02-15T03:12:39.662Z,0.00
2023-02-15T03:13:38.953Z,0.00
2023-02-15T03:14:39.639Z,0.00
2023-02-15T03:15:39.675Z,0.00
2023-02-15T03:16:38.936Z,0.00
2023-02-15T03:17:39.604Z,0.00
2023-02-15T03:18:39.604Z,0.00
2023-02-15T03:19:39.585Z,0.00
2023-02-15T03:20:39.598Z,0.00
2023-02-15T03:21:38.888Z,0.00
2023-02-15T03:22:39.548Z,0.00
2023-02-15T03:23:39.538Z,0.00
2023-02-15T03:24:39.541Z,0.00
2023-02-15T03:25:39.517Z,0.00
2023-02-15T03:26:39.530Z,0.00
2023-02-15T03:27:39.492Z,0.00
2023-02-15T03:28:39.487Z,0.00
2023-02-15T03:29:39.480Z,0.00
2023-02-15T03:30:39.472Z,0.00
2023-02-15T03:31:39.629Z,0.00
2023-02-15T03:32:39.469Z,0.00
2023-02-15T03:33:39.430Z,0.00
2023-02-15T03:34:39.421Z,0.00
2023-02-15T03:35:38.721Z,0.00
2023-02-15T03:36:38.711Z,0.00
2023-02-15T03:37:39.410Z,0.00
2023-02-15T03:38:39.381Z,0.00
2023-02-15T03:39:39.362Z,0.00
2023-02-15T03:40:39.368Z,0.00
2023-02-15T03:41:39.355Z,0.00
2023-02-15T03:42:38.667Z,0.00
2023-02-15T03:43:38.646Z,0.00
2023-02-15T03:44:39.312Z,0.00
2023-02-15T03:45:38.611Z,0.00
2023-02-15T03:46:39.355Z,0.00
2023-02-15T03:47:39.304Z,0.00
2023-02-15T03:48:38.581Z,0.00
2023-02-15T03:49:38.581Z,0.00
2023-02-15T03:50:39.261Z,0.00
2023-02-15T03:51:39.302Z,0.00
2023-02-15T03:52:39.261Z,0.00
2023-02-15T03:53:39.230Z,0.00
2023-02-15T03:54:39.246Z,0.00
2023-02-15T03:55:39.203Z,0.00
2023-02-15T03:56:39.190Z,0.00
2023-02-15T03:57:39.192Z,0.00
2023-02-15T03:58:39.164Z,0.00
2023-02-15T03:59:38.470Z,0.00
2023-02-15T04:00:39.145Z,0.00
2023-02-15T04:01:38.442Z,0.00
2023-02-15T04:02:40.454Z,0.00
2023-02-15T04:03:39.125Z,0.00
2023-02-15T04:04:39.146Z,0.00
2023-02-15T04:05:39.105Z,0.00
2023-02-15T04:06:38.415Z,0.00
2023-02-15T04:07:39.071Z,0.00
2023-02-15T04:08:39.088Z,0.00
2023-02-15T04:09:39.062Z,0.00
2023-02-15T04:10:39.045Z,0.00
2023-02-15T04:11:39.039Z,0.00
2023-02-15T04:12:39.162Z,0.00
2023-02-15T04:13:38.337Z,0.00
2023-02-15T04:14:38.305Z,0.00
2023-02-15T04:15:38.992Z,0.00
2023-02-15T04:16:38.997Z,0.00
2023-02-15T04:17:38.965Z,0.00
2023-02-15T04:18:40.233Z,0.00
2023-02-15T04:19:38.263Z,0.00
2023-02-15T04:20:38.242Z,0.00
2023-02-15T04:21:38.924Z,0.00
2023-02-15T04:22:38.911Z,0.00
2023-02-15T04:23:38.918Z,0.00
2023-02-15T04:24:38.197Z,0.00
2023-02-15T04:25:39.081Z,0.00
2023-02-15T04:26:38.864Z,0.00
2023-02-15T04:27:38.850Z,0.00
2023-02-15T04:28:38.842Z,0.00
2023-02-15T04:29:38.851Z,0.00
2023-02-15T04:30:38.155Z,0.00
2023-02-15T04:31:38.204Z,0.00
2023-02-15T04:32:38.800Z,0.00
2023-02-15T04:33:38.793Z,0.00
2023-02-15T04:34:38.806Z,0.00
2023-02-15T04:35:38.774Z,0.00
2023-02-15T04:36:38.614Z,0.00
2023-02-15T04:37:38.742Z,0.00
2023-02-15T04:38:38.753Z,0.00
2023-02-15T04:39:38.763Z,0.00
2023-02-15T04:40:38.718Z,0.00
2023-02-15T04:41:38.011Z,0.00
2023-02-15T04:42:38.692Z,0.00
2023-02-15T04:43:40.000Z,0.00
2023-02-15T04:44:38.690Z,0.00
2023-02-15T04:45:38.695Z,0.00
2023-02-15T04:46:38.661Z,0.00
2023-02-15T04:47:37.952Z,0.00
2023-02-15T04:48:38.630Z,0.00
2023-02-15T04:49:37.988Z,0.00
2023-02-15T04:50:38.610Z,0.00
2023-02-15T04:51:37.939Z,0.00
2023-02-15T04:52:38.001Z,0.00
2023-02-15T04:53:38.596Z,0.00
2023-02-15T04:54:38.592Z,0.00
2023-02-15T04:55:38.572Z,0.00
2023-02-15T04:56:37.914Z,0.00
2023-02-15T04:57:38.547Z,0.00
2023-02-15T04:58:37.893Z,0.00
2023-02-15T04:59:38.544Z,0.00
2023-02-15T05:00:37.935Z,0.00
2023-02-15T05:01:37.822Z,0.00
2023-02-15T05:02:38.494Z,0.00
2023-02-15T05:03:37.783Z,0.00
2023-02-15T05:04:38.558Z,0.00
2023-02-15T05:05:38.454Z,0.00
2023-02-15T05:06:39.714Z,0.00
2023-02-15T05:07:37.747Z,0.00
2023-02-15T05:08:37.774Z,0.00
2023-02-15T05:09:38.443Z,0.00
2023-02-15T05:10:38.410Z,0.00
2023-02-15T05:11:37.707Z,0.00
2023-02-15T05:12:38.384Z,0.00
2023-02-15T05:13:38.374Z,0.00
2023-02-15T05:14:38.386Z,0.00
2023-02-15T05:15:38.363Z,0.00
2023-02-15T05:16:37.687Z,0.00
2023-02-15T05:17:37.646Z,0.00
2023-02-15T05:18:37.637Z,0.00
2023-02-15T05:19:38.351Z,0.00
2023-02-15T05:20:38.305Z,0.00
2023-02-15T05:21:38.296Z,0.00
2023-02-15T05:22:38.303Z,0.00
2023-02-15T05:23:38.276Z,0.00
2023-02-15T05:24:38.291Z,0.00
2023-02-15T05:25:37.555Z,0.00
2023-02-15T05:26:38.246Z,0.00
2023-02-15T05:27:38.228Z,0.00
2023-02-15T05:28:38.253Z,0.00
2023-02-15T05:29:38.240Z,0.00
2023-02-15T05:30:38.363Z,0.00
2023-02-15T05:31:38.417Z,0.00
2023-02-15T05:32:38.344Z,0.00
2023-02-15T05:33:37.480Z,0.00
2023-02-15T05:34:38.203Z,0.00
2023-02-15T05:35:37.462Z,0.00
2023-02-15T05:36:38.145Z,0.00
2023-02-15T05:37:38.135Z,0.00
2023-02-15T05:38:38.136Z,0.00
2023-02-15T05:39:38.113Z,0.00
2023-02-15T05:40:38.139Z,0.00
2023-02-15T05:41:38.334Z,0.00
2023-02-15T05:42:38.103Z,0.00
2023-02-15T05:43:38.076Z,0.00
2023-02-15T05:44:38.086Z,0.00
2023-02-15T05:45:38.105Z,0.00
2023-02-15T05:46:38.048Z,0.00
2023-02-15T05:47:37.351Z,0.00
2023-02-15T05:48:38.025Z,0.00
2023-02-15T05:49:38.018Z,0.00
2023-02-15T05:50:38.025Z,0.00
2023-02-15T05:51:38.000Z,0.00
2023-02-15T05:52:37.991Z,0.00
2023-02-15T05:53:38.111Z,0.00
2023-02-15T05:54:37.964Z,0.00
2023-02-15T05:55:37.291Z,0.00
2023-02-15T05:56:37.960Z,0.00
2023-02-15T05:57:37.942Z,0.00
2023-02-15T05:58:37.917Z,0.00
2023-02-15T05:59:37.914Z,0.00
2023-02-15T06:00:38.194Z,0.00
2023-02-15T06:01:37.886Z,0.00
2023-02-15T06:02:37.947Z,0.00
2023-02-15T06:03:37.917Z,0.00
2023-02-15T06:04:37.857Z,0.00
2023-02-15T06:05:37.868Z,0.00
2023-02-15T06:06:37.838Z,0.00
2023-02-15T06:07:37.836Z,0.00
2023-02-15T06:08:37.817Z,0.00
2023-02-15T06:09:37.806Z,0.00
2023-02-15T06:10:37.806Z,4.00
2023-02-15T06:11:37.808Z,0.00
2023-02-15T06:12:37.082Z,4.00
2023-02-15T06:13:38.886Z,0.00
2023-02-15T06:14:39.003Z,4.00
2023-02-15T06:15:37.795Z,4.00
2023-02-15T06:16:37.753Z,4.00
2023-02-15T06:17:37.031Z,4.00
2023-02-15T06:18:37.712Z,4.00
2023-02-15T06:19:37.019Z,4.00
2023-02-15T06:20:37.694Z,8.00
2023-02-15T06:21:37.021Z,8.00
2023-02-15T06:22:36.986Z,8.00
2023-02-15T06:23:36.964Z,8.00
2023-02-15T06:24:36.979Z,12.00
2023-02-15T06:25:39.881Z,16.00
2023-02-15T06:26:37.651Z,20.00
2023-02-15T06:27:37.622Z,20.00
2023-02-15T06:28:37.609Z,28.00
2023-02-15T06:29:37.603Z,32.00
2023-02-15T06:30:37.608Z,36.00
2023-02-15T06:31:37.750Z,36.00
2023-02-15T06:32:36.884Z,44.00
2023-02-15T06:33:37.800Z,48.00
2023-02-15T06:34:37.552Z,56.00
2023-02-15T06:35:36.851Z,64.00
2023-02-15T06:36:36.871Z,72.00
2023-02-15T06:37:36.871Z,76.00
2023-02-15T06:38:37.766Z,88.00
2023-02-15T06:39:37.712Z,96.00
2023-02-15T06:40:37.730Z,108.00
2023-02-15T06:41:37.835Z,120.00
2023-02-15T06:42:37.459Z,128.00
2023-02-15T06:43:38.416Z,140.00
2023-02-15T06:44:37.688Z,152.00
2023-02-15T06:45:37.422Z,168.00
2023-02-15T06:46:37.685Z,180.00
2023-02-15T06:47:37.403Z,192.00
2023-02-15T06:48:37.393Z,208.00
2023-02-15T06:49:37.644Z,224.00
2023-02-15T06:50:37.620Z,240.00
2023-02-15T06:51:37.383Z,256.00
2023-02-15T06:52:37.604Z,276.00
2023-02-15T06:53:37.615Z,292.00
2023-02-15T06:54:37.633Z,316.00
2023-02-15T06:55:37.332Z,332.00
2023-02-15T06:56:37.633Z,356.00
2023-02-15T06:57:37.306Z,376.00
2023-02-15T06:58:36.594Z,396.00
2023-02-15T06:59:36.602Z,420.00
2023-02-15T07:00:37.264Z,448.00
2023-02-15T07:01:37.333Z,468.00
2023-02-15T07:02:37.244Z,496.00
2023-02-15T07:03:37.254Z,520.00
2023-02-15T07:04:36.635Z,548.00
2023-02-15T07:05:36.531Z,576.00
2023-02-15T07:06:36.541Z,604.00
2023-02-15T07:07:37.191Z,632.00
2023-02-15T07:08:37.173Z,660.00
2023-02-15T07:09:37.160Z,692.00
2023-02-15T07:10:36.459Z,724.00
2023-02-15T07:11:36.483Z,752.00
2023-02-15T07:12:37.137Z,784.00
2023-02-15T07:13:37.120Z,816.00
2023-02-15T07:14:37.129Z,848.00
2023-02-15T07:15:37.167Z,880.00
2023-02-15T07:16:37.118Z,908.00
2023-02-15T07:17:37.237Z,944.00
2023-02-15T07:18:36.409Z,980.00
2023-02-15T07:19:37.073Z,1012.00
2023-02-15T07:20:37.650Z,1052.00
2023-02-15T07:21:36.399Z,1092.00
2023-02-15T07:22:37.045Z,1132.00
2023-02-15T07:23:37.285Z,1176.00
2023-02-15T07:24:37.250Z,1220.00
2023-02-15T07:25:37.239Z,1268.00
2023-02-15T07:26:37.248Z,1312.00
2023-02-15T07:27:36.978Z,1356.00
2023-02-15T07:28:36.977Z,1396.00
2023-02-15T07:29:36.957Z,1436.00
2023-02-15T07:30:37.045Z,1468.00
2023-02-15T07:31:36.290Z,1508.00
2023-02-15T07:32:37.223Z,1556.00
2023-02-15T07:33:37.158Z,1600.00
2023-02-15T07:34:36.909Z,1648.00
2023-02-15T07:35:36.895Z,1764.00
2023-02-15T07:36:36.909Z,2120.00
2023-02-15T07:37:36.870Z,2564.00
2023-02-15T07:38:36.861Z,2916.00
2023-02-15T07:39:36.860Z,3160.00
2023-02-15T07:40:37.108Z,3304.00
2023-02-15T07:41:36.868Z,3488.00
2023-02-15T07:42:37.081Z,3680.00
2023-02-15T07:43:37.065Z,3960.00
2023-02-15T07:44:37.061Z,4292.00
2023-02-15T07:45:36.793Z,4668.00
2023-02-15T07:46:36.877Z,4692.00
2023-02-15T07:47:36.770Z,4596.00
2023-02-15T07:48:36.764Z,4632.00
2023-02-15T07:49:37.025Z,4552.00
2023-02-15T07:50:37.006Z,4440.00
2023-02-15T07:51:37.012Z,4452.00
2023-02-15T07:52:36.712Z,4512.00
2023-02-15T07:53:36.710Z,4524.00
2023-02-15T07:54:36.966Z,4484.00
2023-02-15T07:55:36.682Z,4436.00
2023-02-15T07:56:37.243Z,4388.00
2023-02-15T07:57:36.652Z,4396.00
2023-02-15T07:58:36.915Z,4412.00
2023-02-15T07:59:36.643Z,4452.00
2023-02-15T08:00:35.943Z,4528.00
2023-02-15T08:01:36.656Z,4548.00
2023-02-15T08:02:36.705Z,4552.00
2023-02-15T08:03:36.639Z,4600.00
2023-02-15T08:04:36.587Z,4608.00
2023-02-15T08:05:36.580Z,4604.00
2023-02-15T08:06:36.590Z,4684.00
2023-02-15T08:07:36.554Z,4752.00
2023-02-15T08:08:36.570Z,4744.00
2023-02-15T08:09:36.546Z,4732.00
2023-02-15T08:10:35.877Z,4732.00
2023-02-15T08:11:36.511Z,4776.00
2023-02-15T08:12:35.856Z,4832.00
2023-02-15T08:13:36.758Z,4900.00
2023-02-15T08:14:36.738Z,4972.00
2023-02-15T08:15:36.488Z,5004.00
2023-02-15T08:16:36.501Z,5032.00
2023-02-15T08:17:35.830Z,5096.00
2023-02-15T08:18:36.711Z,5180.00
2023-02-15T08:19:36.686Z,5264.00
2023-02-15T08:20:36.421Z,5136.00
2023-02-15T08:21:36.672Z,5088.00
2023-02-15T08:22:36.682Z,5144.00
2023-02-15T08:23:36.645Z,4984.00
2023-02-15T08:24:36.381Z,4740.00
2023-02-15T08:25:36.633Z,4744.00
2023-02-15T08:26:36.354Z,4876.00
2023-02-15T08:27:35.674Z,4856.00
2023-02-15T08:28:37.753Z,5200.00
2023-02-15T08:29:36.373Z,5404.00
2023-02-15T08:30:36.556Z,5608.00
2023-02-15T08:31:36.561Z,5800.00
2023-02-15T08:32:36.322Z,5884.00
2023-02-15T08:33:36.343Z,5888.00
2023-02-15T08:34:36.276Z,5972.00
2023-02-15T08:35:36.257Z,6144.00
2023-02-15T08:36:36.248Z,6144.00
2023-02-15T08:37:35.568Z,6300.00
2023-02-15T08:38:36.237Z,6536.00
2023-02-15T08:39:35.545Z,6648.00
2023-02-15T08:40:36.223Z,6720.00
2023-02-15T08:41:36.459Z,6804.00
2023-02-15T08:42:36.476Z,7116.00
2023-02-15T08:43:36.188Z,7348.00
2023-02-15T08:44:36.190Z,7704.00
2023-02-15T08:45:36.204Z,7960.00
2023-02-15T08:46:36.160Z,8008.00
2023-02-15T08:47:36.152Z,8472.00
2023-02-15T08:48:36.132Z,9024.00
2023-02-15T08:49:36.382Z,8976.00
2023-02-15T08:50:36.106Z,8240.00
2023-02-15T08:51:36.089Z,9068.00
2023-02-15T08:52:36.359Z,9344.00
2023-02-15T08:53:36.070Z,9412.00
2023-02-15T08:54:36.060Z,9436.00
2023-02-15T08:55:35.358Z,9724.00
2023-02-15T08:56:35.341Z,9796.00
2023-02-15T08:57:35.350Z,10048.00
2023-02-15T08:58:36.020Z,10512.00
2023-02-15T08:59:36.002Z,10600.00
2023-02-15T09:00:36.002Z,10304.00
2023-02-15T09:01:36.043Z,9876.00
2023-02-15T09:02:36.012Z,10024.00
2023-02-15T09:03:35.981Z,10240.00
2023-02-15T09:04:36.212Z,10424.00
2023-02-15T09:05:36.202Z,10696.00
2023-02-15T09:06:35.246Z,10748.00
2023-02-15T09:07:35.912Z,10648.00
2023-02-15T09:08:36.181Z,10456.00
2023-02-15T09:09:35.893Z,10228.00
2023-02-15T09:10:35.884Z,10572.00
2023-02-15T09:11:35.898Z,11128.00
2023-02-15T09:12:35.863Z,11388.00
2023-02-15T09:13:35.873Z,11616.00
2023-02-15T09:14:35.842Z,11976.00
2023-02-15T09:15:35.834Z,11912.00
2023-02-15T09:16:35.920Z,11624.00
2023-02-15T09:17:35.127Z,11872.00
2023-02-15T09:18:35.835Z,12072.00
2023-02-15T09:19:35.783Z,11732.00
2023-02-15T09:20:35.774Z,11768.00
2023-02-15T09:21:35.098Z,12148.00
2023-02-15T09:22:35.755Z,12468.00
2023-02-15T09:23:35.768Z,11964.00
2023-02-15T09:24:35.057Z,12140.00
2023-02-15T09:25:35.733Z,13108.00
2023-02-15T09:26:35.721Z,13660.00
2023-02-15T09:27:35.711Z,14032.00
2023-02-15T09:28:35.020Z,13700.00
2023-02-15T09:29:35.705Z,13532.00
2023-02-15T09:30:35.819Z,14332.00
2023-02-15T09:31:35.738Z,15040.00
2023-02-15T09:32:35.644Z,15040.00
2023-02-15T09:33:35.636Z,13960.00
2023-02-15T09:34:35.644Z,14720.00
2023-02-15T09:35:34.942Z,15232.00
2023-02-15T09:36:35.613Z,15808.00
2023-02-15T09:37:34.895Z,16512.00
2023-02-15T09:38:34.904Z,16544.00
2023-02-15T09:39:34.926Z,15648.00
2023-02-15T09:40:34.877Z,15200.00
2023-02-15T09:41:35.546Z,15584.00
2023-02-15T09:42:35.536Z,15776.00
2023-02-15T09:43:35.526Z,15168.00
2023-02-15T09:44:34.846Z,15168.00
2023-02-15T09:45:35.535Z,15680.00
2023-02-15T09:46:35.488Z,15680.00
2023-02-15T09:47:35.487Z,15872.00
2023-02-15T09:48:35.470Z,16256.00
2023-02-15T09:49:34.790Z,16608.00
2023-02-15T09:50:36.727Z,15840.00
2023-02-15T09:51:34.760Z,14076.00
2023-02-15T09:52:35.431Z,9836.00
2023-02-15T09:53:35.420Z,5956.00
2023-02-15T09:54:35.434Z,5024.00
2023-02-15T09:55:34.735Z,4684.00
2023-02-15T09:56:35.382Z,4388.00
2023-02-15T09:57:35.377Z,4316.00
2023-02-15T09:58:35.377Z,4264.00
2023-02-15T09:59:35.375Z,4176.00
2023-02-15T10:00:35.343Z,4148.00
2023-02-15T10:01:34.727Z,4092.00
2023-02-15T10:02:35.324Z,4000.00
2023-02-15T10:03:35.313Z,3972.00
2023-02-15T10:04:35.317Z,3940.00
2023-02-15T10:05:35.314Z,3852.00
2023-02-15T10:06:35.276Z,3760.00
2023-02-15T10:07:35.273Z,3736.00
2023-02-15T10:08:35.256Z,3680.00
2023-02-15T10:09:34.565Z,3648.00
2023-02-15T10:10:35.288Z,3600.00
2023-02-15T10:11:34.536Z,3560.00
2023-02-15T10:12:36.885Z,3512.00
2023-02-15T10:13:35.205Z,3468.00
2023-02-15T10:14:35.187Z,3428.00
2023-02-15T10:15:35.201Z,3356.00
2023-02-15T10:16:35.317Z,3284.00
2023-02-15T10:17:34.617Z,3296.00
2023-02-15T10:18:34.468Z,3244.00
2023-02-15T10:19:35.153Z,3232.00
2023-02-15T10:20:34.472Z,3108.00
2023-02-15T10:21:35.122Z,3076.00
2023-02-15T10:22:35.138Z,3080.00
2023-02-15T10:23:34.411Z,3144.00
2023-02-15T10:24:40.572Z,3136.00
2023-02-15T10:25:36.096Z,3132.00
2023-02-15T10:26:34.370Z,3120.00
2023-02-15T10:27:35.052Z,3124.00
2023-02-15T10:28:35.042Z,3132.00
2023-02-15T10:29:35.043Z,3100.00
2023-02-15T10:30:35.134Z,3060.00
2023-02-15T10:31:35.138Z,3044.00
2023-02-15T10:32:35.012Z,2996.00
2023-02-15T10:33:34.989Z,2992.00
2023-02-15T10:34:34.974Z,2992.00
2023-02-15T10:35:34.985Z,2964.00
2023-02-15T10:36:34.952Z,2936.00
2023-02-15T10:37:34.262Z,2916.00
2023-02-15T10:38:34.935Z,2936.00
2023-02-15T10:39:34.924Z,2928.00
2023-02-15T10:40:34.936Z,2956.00
2023-02-15T10:41:34.901Z,2920.00
2023-02-15T10:42:34.894Z,2900.00
2023-02-15T10:43:34.888Z,2876.00
2023-02-15T10:44:34.868Z,2856.00
2023-02-15T10:45:34.886Z,2848.00
2023-02-15T10:46:34.197Z,2824.00
2023-02-15T10:47:34.156Z,2832.00
2023-02-15T10:48:34.842Z,2848.00
2023-02-15T10:49:34.158Z,2836.00
2023-02-15T10:50:34.828Z,2816.00
2023-02-15T10:51:34.793Z,2808.00
2023-02-15T10:52:34.375Z,2780.00
2023-02-15T10:53:34.775Z,2764.00
2023-02-15T10:54:34.097Z,2764.00
2023-02-15T10:55:34.096Z,2776.00
2023-02-15T10:56:34.744Z,2768.00
2023-02-15T10:57:34.727Z,2784.00
2023-02-15T10:58:34.734Z,2776.00
2023-02-15T10:59:34.706Z,2652.00
2023-02-15T11:00:34.032Z,2612.00
2023-02-15T11:01:34.155Z,2680.00
2023-02-15T11:02:34.683Z,2696.00
2023-02-15T11:03:34.689Z,2700.00
2023-02-15T11:04:34.728Z,2684.00
2023-02-15T11:05:34.008Z,2676.00
2023-02-15T11:06:34.640Z,2660.00
2023-02-15T11:07:33.939Z,2644.00
2023-02-15T11:08:34.617Z,2668.00
2023-02-15T11:09:34.613Z,2684.00
2023-02-15T11:10:34.592Z,2604.00
2023-02-15T11:11:33.919Z,2556.00
2023-02-15T11:12:34.573Z,2536.00
2023-02-15T11:13:34.560Z,2468.00
2023-02-15T11:14:34.550Z,2436.00
2023-02-15T11:15:34.585Z,2396.00
2023-02-15T11:16:34.549Z,2412.00
2023-02-15T11:17:33.840Z,2452.00
2023-02-15T11:18:34.511Z,2488.00
2023-02-15T11:19:34.512Z,2524.00
2023-02-15T11:20:33.839Z,2600.00
2023-02-15T11:21:34.492Z,2644.00
2023-02-15T11:22:34.470Z,2688.00
2023-02-15T11:23:34.475Z,2744.00
2023-02-15T11:24:34.444Z,2792.00
2023-02-15T11:25:34.743Z,2800.00
2023-02-15T11:26:33.756Z,2824.00
2023-02-15T11:27:34.433Z,2860.00
2023-02-15T11:28:33.703Z,2820.00
2023-02-15T11:29:34.392Z,2720.00
2023-02-15T11:30:34.459Z,2600.00
2023-02-15T11:31:34.459Z,2544.00
2023-02-15T11:32:34.361Z,2516.00
2023-02-15T11:33:34.345Z,2484.00
2023-02-15T11:34:33.677Z,2472.00
2023-02-15T11:35:33.655Z,2448.00
2023-02-15T11:36:34.349Z,2452.00
2023-02-15T11:37:34.305Z,2476.00
2023-02-15T11:38:33.664Z,2488.00
2023-02-15T11:39:34.275Z,2504.00
2023-02-15T11:40:34.268Z,2512.00
2023-02-15T11:41:34.304Z,2436.00
2023-02-15T11:42:34.255Z,2388.00
2023-02-15T11:43:33.614Z,2424.00
2023-02-15T11:44:34.224Z,2424.00
2023-02-15T11:45:34.226Z,2448.00
2023-02-15T11:46:34.257Z,2408.00
2023-02-15T11:47:33.535Z,2408.00
2023-02-15T11:48:33.550Z,2440.00
2023-02-15T11:49:34.172Z,2448.00
2023-02-15T11:50:33.741Z,2464.00
2023-02-15T11:51:34.175Z,2492.00
2023-02-15T11:52:34.158Z,2536.00
2023-02-15T11:53:34.133Z,2568.00
2023-02-15T11:54:34.126Z,2580.00
2023-02-15T11:55:34.106Z,2604.00
2023-02-15T11:56:34.124Z,2608.00
2023-02-15T11:57:34.096Z,2640.00
2023-02-15T11:58:34.087Z,2680.00
2023-02-15T11:59:33.386Z,2712.00
2023-02-15T12:00:34.317Z,2744.00
2023-02-15T12:01:34.089Z,2716.00
2023-02-15T12:02:33.364Z,2668.00
2023-02-15T12:03:34.090Z,2704.00
2023-02-15T12:04:33.362Z,2688.00
2023-02-15T12:05:33.999Z,2664.00
2023-02-15T12:06:34.037Z,2668.00
2023-02-15T12:07:33.982Z,2680.00
2023-02-15T12:08:33.971Z,2692.00
2023-02-15T12:09:33.981Z,2704.00
2023-02-15T12:10:33.949Z,2692.00
2023-02-15T12:11:33.279Z,2696.00
2023-02-15T12:12:33.239Z,2696.00
2023-02-15T12:13:33.241Z,2688.00
2023-02-15T12:14:33.901Z,2652.00
2023-02-15T12:15:33.215Z,2620.00
2023-02-15T12:16:33.980Z,2576.00
2023-02-15T12:17:33.887Z,2536.00
2023-02-15T12:18:33.192Z,2528.00
2023-02-15T12:19:33.204Z,2520.00
2023-02-15T12:20:33.833Z,2500.00
2023-02-15T12:21:33.161Z,2504.00
2023-02-15T12:22:33.812Z,2516.00
2023-02-15T12:23:33.809Z,2528.00
2023-02-15T12:24:33.796Z,2532.00
2023-02-15T12:25:33.792Z,2536.00
2023-02-15T12:26:33.792Z,2540.00
2023-02-15T12:27:33.105Z,2560.00
2023-02-15T12:28:33.760Z,2584.00
2023-02-15T12:29:33.747Z,2556.00
2023-02-15T12:30:33.167Z,2592.00
2023-02-15T12:31:33.808Z,2616.00
2023-02-15T12:32:33.704Z,2632.00
2023-02-15T12:33:33.048Z,2624.00
2023-02-15T12:34:33.689Z,2620.00
2023-02-15T12:35:33.676Z,2624.00
2023-02-15T12:36:33.086Z,2620.00
2023-02-15T12:37:33.676Z,2612.00
2023-02-15T12:38:32.993Z,2608.00
2023-02-15T12:39:32.983Z,2604.00
2023-02-15T12:40:33.629Z,2596.00
2023-02-15T12:41:33.608Z,2544.00